sensor_id;sensor_type;location;lat;lon;timestamp;P1;durP1;ratioP1;P2;durP2;ratioP2
83541;SDS011;73485;49.194;12.104;2024-03-23T00:54:36;27.83;;;13.75;;
83541;SDS011;73485;49.194;12.104;2024-03-23T00:57:02;25.38;;;13.68;;
83541;SDS011;73485;49.194;12.104;2024-03-23T00:59:28;22.63;;;14.27;;
83541;SDS011;73485;49.194;12.104;2024-03-23T01:01:56;25.83;;;13.80;;
83541;SDS011;73485;49.194;12.104;2024-03-23T01:04:22;31.50;;;16.15;;
83541;SDS011;73485;49.194;12.104;2024-03-23T01:06:49;28.48;;;13.63;;
83541;SDS011;73485;49.194;12.104;2024-03-23T01:09:14;33.55;;;14.88;;
83541;SDS011;73485;49.194;12.104;2024-03-23T01:11:42;24.80;;;14.18;;
83541;SDS011;73485;49.194;12.104;2024-03-23T01:14:08;32.00;;;15.50;;
83541;SDS011;73485;49.194;12.104;2024-03-23T01:16:35;28.08;;;15.13;;
83541;SDS011;73485;49.194;12.104;2024-03-23T01:19:01;24.05;;;14.40;;
83541;SDS011;73485;49.194;12.104;2024-03-23T01:21:27;28.50;;;14.35;;
83541;SDS011;73485;49.194;12.104;2024-03-23T01:23:53;33.08;;;15.27;;
83541;SDS011;73485;49.194;12.104;2024-03-23T01:26:20;26.48;;;14.32;;
83541;SDS011;73485;49.194;12.104;2024-03-23T01:28:47;33.47;;;14.90;;
83541;SDS011;73485;49.194;12.104;2024-03-23T01:31:14;30.42;;;15.05;;
83541;SDS011;73485;49.194;12.104;2024-03-23T01:33:41;28.17;;;14.63;;
83541;SDS011;73485;49.194;12.104;2024-03-23T01:36:07;23.98;;;14.25;;
83541;SDS011;73485;49.194;12.104;2024-03-23T01:38:33;26.83;;;14.25;;
83541;SDS011;73485;49.194;12.104;2024-03-23T01:41:01;24.50;;;13.27;;
83541;SDS011;73485;49.194;12.104;2024-03-23T01:43:27;26.08;;;14.27;;
83541;SDS011;73485;49.194;12.104;2024-03-23T01:45:55;27.58;;;14.45;;
83541;SDS011;73485;49.194;12.104;2024-03-23T01:48:20;23.75;;;14.15;;
83541;SDS011;73485;49.194;12.104;2024-03-23T01:50:47;26.33;;;14.88;;
83541;SDS011;73485;49.194;12.104;2024-03-23T01:53:13;25.98;;;14.77;;
83541;SDS011;73485;49.194;12.104;2024-03-23T01:55:42;24.83;;;13.60;;
83541;SDS011;73485;49.194;12.104;2024-03-23T01:58:08;24.92;;;13.88;;
83541;SDS011;73485;49.194;12.104;2024-03-23T02:00:35;30.17;;;14.45;;
83541;SDS011;73485;49.194;12.104;2024-03-23T02:03:02;28.40;;;13.90;;
83541;SDS011;73485;49.194;12.104;2024-03-23T02:05:48;31.17;;;15.38;;
83541;SDS011;73485;49.194;12.104;2024-03-23T02:08:14;29.98;;;15.23;;
83541;SDS011;73485;49.194;12.104;2024-03-23T02:10:41;25.52;;;15.20;;
83541;SDS011;73485;49.194;12.104;2024-03-23T02:13:07;23.02;;;14.93;;
83541;SDS011;73485;49.194;12.104;2024-03-23T02:15:34;23.52;;;13.40;;
83541;SDS011;73485;49.194;12.104;2024-03-23T02:18:00;26.00;;;13.82;;
83541;SDS011;73485;49.194;12.104;2024-03-23T02:20:28;28.33;;;14.73;;
83541;SDS011;73485;49.194;12.104;2024-03-23T02:22:55;26.40;;;14.75;;
83541;SDS011;73485;49.194;12.104;2024-03-23T02:25:22;23.15;;;13.27;;
83541;SDS011;73485;49.194;12.104;2024-03-23T02:27:48;25.83;;;14.23;;
83541;SDS011;73485;49.194;12.104;2024-03-23T02:30:14;28.80;;;14.18;;
83541;SDS011;73485;49.194;12.104;2024-03-23T02:32:40;24.27;;;13.57;;
83541;SDS011;73485;49.194;12.104;2024-03-23T02:35:07;26.00;;;14.25;;
83541;SDS011;73485;49.194;12.104;2024-03-23T02:37:33;21.60;;;12.95;;
83541;SDS011;73485;49.194;12.104;2024-03-23T02:40:01;27.50;;;14.75;;
83541;SDS011;73485;49.194;12.104;2024-03-23T02:42:26;22.55;;;13.38;;
83541;SDS011;73485;49.194;12.104;2024-03-23T02:44:53;26.58;;;14.00;;
83541;SDS011;73485;49.194;12.104;2024-03-23T02:47:19;25.85;;;13.88;;
83541;SDS011;73485;49.194;12.104;2024-03-23T02:49:46;26.75;;;14.45;;
83541;SDS011;73485;49.194;12.104;2024-03-23T02:52:11;30.92;;;15.98;;
83541;SDS011;73485;49.194;12.104;2024-03-23T02:54:38;23.83;;;13.15;;
83541;SDS011;73485;49.194;12.104;2024-03-23T02:57:05;21.92;;;12.50;;
83541;SDS011;73485;49.194;12.104;2024-03-23T02:59:32;23.20;;;12.75;;
83541;SDS011;73485;49.194;12.104;2024-03-23T03:01:58;23.08;;;13.48;;
83541;SDS011;73485;49.194;12.104;2024-03-23T03:04:25;26.65;;;13.77;;
83541;SDS011;73485;49.194;12.104;2024-03-23T03:06:51;23.27;;;12.10;;
83541;SDS011;73485;49.194;12.104;2024-03-23T03:09:17;21.75;;;13.27;;
83541;SDS011;73485;49.194;12.104;2024-03-23T03:11:43;26.13;;;14.73;;
83541;SDS011;73485;49.194;12.104;2024-03-23T03:14:11;26.50;;;15.55;;
83541;SDS011;73485;49.194;12.104;2024-03-23T03:16:37;29.77;;;16.13;;
83541;SDS011;73485;49.194;12.104;2024-03-23T03:19:03;27.65;;;15.40;;
83541;SDS011;73485;49.194;12.104;2024-03-23T03:21:29;29.20;;;15.50;;
83541;SDS011;73485;49.194;12.104;2024-03-23T03:23:56;26.95;;;13.07;;
83541;SDS011;73485;49.194;12.104;2024-03-23T03:26:22;26.10;;;13.95;;
83541;SDS011;73485;49.194;12.104;2024-03-23T03:28:48;25.27;;;14.10;;
83541;SDS011;73485;49.194;12.104;2024-03-23T03:31:16;22.00;;;11.30;;
83541;SDS011;73485;49.194;12.104;2024-03-23T03:33:44;29.98;;;14.95;;
83541;SDS011;73485;49.194;12.104;2024-03-23T03:36:09;25.77;;;15.82;;
83541;SDS011;73485;49.194;12.104;2024-03-23T03:38:36;28.77;;;14.45;;
83541;SDS011;73485;49.194;12.104;2024-03-23T03:41:03;27.83;;;15.57;;
83541;SDS011;73485;49.194;12.104;2024-03-23T03:43:31;30.02;;;16.58;;
83541;SDS011;73485;49.194;12.104;2024-03-23T03:45:57;26.48;;;15.60;;
83541;SDS011;73485;49.194;12.104;2024-03-23T03:48:26;27.48;;;15.48;;
83541;SDS011;73485;49.194;12.104;2024-03-23T03:50:52;29.45;;;15.00;;
83541;SDS011;73485;49.194;12.104;2024-03-23T03:53:19;31.15;;;15.98;;
83541;SDS011;73485;49.194;12.104;2024-03-23T03:55:45;27.13;;;14.32;;
83541;SDS011;73485;49.194;12.104;2024-03-23T03:58:11;33.42;;;15.88;;
83541;SDS011;73485;49.194;12.104;2024-03-23T04:00:37;30.58;;;14.85;;
83541;SDS011;73485;49.194;12.104;2024-03-23T04:03:04;25.83;;;13.80;;
83541;SDS011;73485;49.194;12.104;2024-03-23T04:05:31;25.98;;;13.80;;
83541;SDS011;73485;49.194;12.104;2024-03-23T04:07:58;25.35;;;14.23;;
83541;SDS011;73485;49.194;12.104;2024-03-23T04:10:24;22.65;;;14.52;;
83541;SDS011;73485;49.194;12.104;2024-03-23T04:12:52;23.90;;;14.05;;
83541;SDS011;73485;49.194;12.104;2024-03-23T04:15:18;26.52;;;14.30;;
83541;SDS011;73485;49.194;12.104;2024-03-23T04:17:46;26.63;;;14.32;;
83541;SDS011;73485;49.194;12.104;2024-03-23T04:20:11;22.58;;;13.32;;
83541;SDS011;73485;49.194;12.104;2024-03-23T04:22:43;26.02;;;13.73;;
83541;SDS011;73485;49.194;12.104;2024-03-23T04:25:09;31.92;;;14.30;;
83541;SDS011;73485;49.194;12.104;2024-03-23T04:27:36;24.88;;;13.35;;
83541;SDS011;73485;49.194;12.104;2024-03-23T04:30:02;21.35;;;12.98;;
83541;SDS011;73485;49.194;12.104;2024-03-23T04:32:31;22.88;;;13.48;;
83541;SDS011;73485;49.194;12.104;2024-03-23T04:34:57;24.90;;;12.75;;
83541;SDS011;73485;49.194;12.104;2024-03-23T04:37:23;24.98;;;13.18;;
83541;SDS011;73485;49.194;12.104;2024-03-23T04:39:51;21.83;;;12.65;;
83541;SDS011;73485;49.194;12.104;2024-03-23T04:42:18;20.33;;;12.15;;
83541;SDS011;73485;49.194;12.104;2024-03-23T04:44:45;22.88;;;12.18;;
83541;SDS011;73485;49.194;12.104;2024-03-23T04:47:11;21.90;;;11.75;;
83541;SDS011;73485;49.194;12.104;2024-03-23T04:49:38;20.13;;;11.27;;
83541;SDS011;73485;49.194;12.104;2024-03-23T04:52:05;20.88;;;12.77;;
83541;SDS011;73485;49.194;12.104;2024-03-23T04:54:32;21.08;;;10.63;;
83541;SDS011;73485;49.194;12.104;2024-03-23T04:57:00;18.40;;;11.77;;
83541;SDS011;73485;49.194;12.104;2024-03-23T04:59:26;18.27;;;12.13;;
83541;SDS011;73485;49.194;12.104;2024-03-23T05:01:52;16.42;;;9.45;;
83541;SDS011;73485;49.194;12.104;2024-03-23T05:04:19;20.52;;;11.38;;
83541;SDS011;73485;49.194;12.104;2024-03-23T05:06:45;17.58;;;10.68;;
83541;SDS011;73485;49.194;12.104;2024-03-23T05:09:11;19.00;;;9.45;;
83541;SDS011;73485;49.194;12.104;2024-03-23T05:11:37;18.52;;;11.38;;
83541;SDS011;73485;49.194;12.104;2024-03-23T05:14:06;19.60;;;9.98;;
83541;SDS011;73485;49.194;12.104;2024-03-23T05:16:31;16.63;;;9.90;;
83541;SDS011;73485;49.194;12.104;2024-03-23T05:18:58;19.08;;;10.43;;
83541;SDS011;73485;49.194;12.104;2024-03-23T05:21:24;19.33;;;11.23;;
83541;SDS011;73485;49.194;12.104;2024-03-23T05:23:51;18.80;;;11.98;;
83541;SDS011;73485;49.194;12.104;2024-03-23T05:26:16;18.00;;;10.90;;
83541;SDS011;73485;49.194;12.104;2024-03-23T05:28:43;17.20;;;10.63;;
83541;SDS011;73485;49.194;12.104;2024-03-23T05:31:10;19.67;;;9.40;;
83541;SDS011;73485;49.194;12.104;2024-03-23T05:33:37;14.70;;;10.98;;
83541;SDS011;73485;49.194;12.104;2024-03-23T05:36:03;17.73;;;9.63;;
83541;SDS011;73485;49.194;12.104;2024-03-23T05:38:31;17.50;;;8.68;;
83541;SDS011;73485;49.194;12.104;2024-03-23T05:40:57;18.00;;;9.43;;
83541;SDS011;73485;49.194;12.104;2024-03-23T05:43:24;14.85;;;8.32;;
83541;SDS011;73485;49.194;12.104;2024-03-23T05:45:53;15.07;;;9.25;;
83541;SDS011;73485;49.194;12.104;2024-03-23T05:48:21;16.00;;;9.45;;
83541;SDS011;73485;49.194;12.104;2024-03-23T05:50:48;20.73;;;9.65;;
83541;SDS011;73485;49.194;12.104;2024-03-23T05:53:15;14.88;;;8.68;;
83541;SDS011;73485;49.194;12.104;2024-03-23T05:55:41;18.15;;;8.25;;
83541;SDS011;73485;49.194;12.104;2024-03-23T05:58:07;17.08;;;9.10;;
83541;SDS011;73485;49.194;12.104;2024-03-23T06:00:33;15.63;;;9.15;;
83541;SDS011;73485;49.194;12.104;2024-03-23T06:03:00;13.55;;;8.90;;
83541;SDS011;73485;49.194;12.104;2024-03-23T06:05:27;15.27;;;8.80;;
83541;SDS011;73485;49.194;12.104;2024-03-23T06:07:54;17.00;;;9.65;;
83541;SDS011;73485;49.194;12.104;2024-03-23T06:10:20;15.07;;;8.60;;
83541;SDS011;73485;49.194;12.104;2024-03-23T06:12:46;13.13;;;8.75;;
83541;SDS011;73485;49.194;12.104;2024-03-23T06:15:14;18.52;;;10.35;;
83541;SDS011;73485;49.194;12.104;2024-03-23T06:17:40;14.23;;;8.50;;
83541;SDS011;73485;49.194;12.104;2024-03-23T06:20:07;13.25;;;9.13;;
83541;SDS011;73485;49.194;12.104;2024-03-23T06:22:35;13.23;;;8.65;;
83541;SDS011;73485;49.194;12.104;2024-03-23T06:25:01;13.07;;;8.38;;
83541;SDS011;73485;49.194;12.104;2024-03-23T06:27:27;12.57;;;7.93;;
83541;SDS011;73485;49.194;12.104;2024-03-23T06:29:54;11.60;;;7.70;;
83541;SDS011;73485;49.194;12.104;2024-03-23T06:32:20;11.77;;;8.23;;
83541;SDS011;73485;49.194;12.104;2024-03-23T06:34:47;14.38;;;7.82;;
83541;SDS011;73485;49.194;12.104;2024-03-23T06:37:12;10.93;;;6.97;;
83541;SDS011;73485;49.194;12.104;2024-03-23T06:39:40;14.65;;;8.40;;
83541;SDS011;73485;49.194;12.104;2024-03-23T06:42:06;12.30;;;8.18;;
83541;SDS011;73485;49.194;12.104;2024-03-23T06:44:33;13.50;;;7.65;;
83541;SDS011;73485;49.194;12.104;2024-03-23T06:46:59;11.07;;;7.22;;
83541;SDS011;73485;49.194;12.104;2024-03-23T06:49:26;11.68;;;7.45;;
83541;SDS011;73485;49.194;12.104;2024-03-23T06:51:52;13.07;;;7.05;;
83541;SDS011;73485;49.194;12.104;2024-03-23T06:54:18;9.60;;;6.72;;
83541;SDS011;73485;49.194;12.104;2024-03-23T06:56:46;12.57;;;7.53;;
83541;SDS011;73485;49.194;12.104;2024-03-23T06:59:12;10.25;;;6.28;;
83541;SDS011;73485;49.194;12.104;2024-03-23T07:01:38;8.75;;;6.60;;
83541;SDS011;73485;49.194;12.104;2024-03-23T07:04:05;12.07;;;7.32;;
83541;SDS011;73485;49.194;12.104;2024-03-23T07:06:31;9.70;;;6.80;;
83541;SDS011;73485;49.194;12.104;2024-03-23T07:08:57;9.18;;;6.65;;
83541;SDS011;73485;49.194;12.104;2024-03-23T07:11:23;9.60;;;6.15;;
83541;SDS011;73485;49.194;12.104;2024-03-23T07:13:51;10.82;;;6.72;;
83541;SDS011;73485;49.194;12.104;2024-03-23T07:16:19;9.10;;;5.97;;
83541;SDS011;73485;49.194;12.104;2024-03-23T07:18:46;11.30;;;7.22;;
83541;SDS011;73485;49.194;12.104;2024-03-23T07:21:12;9.70;;;7.30;;
83541;SDS011;73485;49.194;12.104;2024-03-23T07:23:41;12.05;;;7.70;;
83541;SDS011;73485;49.194;12.104;2024-03-23T07:26:09;11.07;;;6.57;;
83541;SDS011;73485;49.194;12.104;2024-03-23T07:28:36;8.27;;;6.15;;
83541;SDS011;73485;49.194;12.104;2024-03-23T07:31:05;9.07;;;5.57;;
83541;SDS011;73485;49.194;12.104;2024-03-23T07:33:34;7.78;;;5.35;;
83541;SDS011;73485;49.194;12.104;2024-03-23T07:36:00;6.97;;;4.38;;
83541;SDS011;73485;49.194;12.104;2024-03-23T07:38:28;7.97;;;5.13;;
83541;SDS011;73485;49.194;12.104;2024-03-23T07:41:02;8.95;;;3.70;;
83541;SDS011;73485;49.194;12.104;2024-03-23T07:43:29;8.40;;;5.22;;
83541;SDS011;73485;49.194;12.104;2024-03-23T07:45:56;9.02;;;4.60;;
83541;SDS011;73485;49.194;12.104;2024-03-23T07:48:24;7.15;;;5.43;;
83541;SDS011;73485;49.194;12.104;2024-03-23T07:50:57;8.93;;;4.85;;
83541;SDS011;73485;49.194;12.104;2024-03-23T07:53:27;9.73;;;5.68;;
83541;SDS011;73485;49.194;12.104;2024-03-23T07:55:56;11.77;;;5.65;;
83541;SDS011;73485;49.194;12.104;2024-03-23T07:58:23;7.65;;;4.55;;
83541;SDS011;73485;49.194;12.104;2024-03-23T08:00:49;9.73;;;4.55;;
83541;SDS011;73485;49.194;12.104;2024-03-23T08:03:16;8.60;;;5.75;;
83541;SDS011;73485;49.194;12.104;2024-03-23T08:05:43;9.45;;;5.20;;
83541;SDS011;73485;49.194;12.104;2024-03-23T08:08:10;9.55;;;4.80;;
83541;SDS011;73485;49.194;12.104;2024-03-23T08:10:36;9.48;;;5.10;;
83541;SDS011;73485;49.194;12.104;2024-03-23T08:13:03;8.65;;;4.70;;
83541;SDS011;73485;49.194;12.104;2024-03-23T08:15:29;9.70;;;5.10;;
83541;SDS011;73485;49.194;12.104;2024-03-23T08:17:58;6.78;;;4.57;;
83541;SDS011;73485;49.194;12.104;2024-03-23T08:20:24;6.32;;;4.32;;
83541;SDS011;73485;49.194;12.104;2024-03-23T08:22:52;9.80;;;5.05;;
83541;SDS011;73485;49.194;12.104;2024-03-23T08:25:18;7.15;;;4.15;;
83541;SDS011;73485;49.194;12.104;2024-03-23T08:27:44;7.53;;;4.60;;
83541;SDS011;73485;49.194;12.104;2024-03-23T08:30:10;7.35;;;4.18;;
83541;SDS011;73485;49.194;12.104;2024-03-23T08:32:37;7.78;;;4.63;;
83541;SDS011;73485;49.194;12.104;2024-03-23T08:35:03;7.68;;;4.57;;
83541;SDS011;73485;49.194;12.104;2024-03-23T08:37:31;12.73;;;5.88;;
83541;SDS011;73485;49.194;12.104;2024-03-23T08:39:58;10.05;;;5.38;;
83541;SDS011;73485;49.194;12.104;2024-03-23T08:42:24;8.23;;;5.05;;
83541;SDS011;73485;49.194;12.104;2024-03-23T08:44:50;6.95;;;5.25;;
83541;SDS011;73485;49.194;12.104;2024-03-23T08:47:17;6.90;;;4.65;;
83541;SDS011;73485;49.194;12.104;2024-03-23T08:49:43;9.77;;;5.30;;
83541;SDS011;73485;49.194;12.104;2024-03-23T08:52:10;7.15;;;4.85;;
83541;SDS011;73485;49.194;12.104;2024-03-23T08:54:36;9.60;;;5.00;;
83541;SDS011;73485;49.194;12.104;2024-03-23T08:57:04;7.53;;;4.80;;
83541;SDS011;73485;49.194;12.104;2024-03-23T08:59:30;5.97;;;3.83;;
83541;SDS011;73485;49.194;12.104;2024-03-23T09:01:56;32.35;;;10.40;;
83541;SDS011;73485;49.194;12.104;2024-03-23T09:04:22;9.52;;;5.20;;
83541;SDS011;73485;49.194;12.104;2024-03-23T09:06:49;7.32;;;4.60;;
83541;SDS011;73485;49.194;12.104;2024-03-23T09:09:15;8.50;;;4.70;;
83541;SDS011;73485;49.194;12.104;2024-03-23T09:11:42;8.05;;;5.07;;
83541;SDS011;73485;49.194;12.104;2024-03-23T09:14:09;8.13;;;4.45;;
83541;SDS011;73485;49.194;12.104;2024-03-23T09:16:35;7.32;;;4.20;;
83541;SDS011;73485;49.194;12.104;2024-03-23T09:19:01;6.88;;;4.03;;
83541;SDS011;73485;49.194;12.104;2024-03-23T09:21:28;6.93;;;4.32;;
83541;SDS011;73485;49.194;12.104;2024-03-23T09:23:54;8.57;;;4.40;;
83541;SDS011;73485;49.194;12.104;2024-03-23T09:26:20;8.00;;;4.40;;
83541;SDS011;73485;49.194;12.104;2024-03-23T09:28:48;6.75;;;4.20;;
83541;SDS011;73485;49.194;12.104;2024-03-23T09:31:16;6.95;;;3.78;;
83541;SDS011;73485;49.194;12.104;2024-03-23T09:33:42;5.07;;;3.28;;
83541;SDS011;73485;49.194;12.104;2024-03-23T09:36:09;5.30;;;4.18;;
83541;SDS011;73485;49.194;12.104;2024-03-23T09:38:35;5.30;;;3.58;;
83541;SDS011;73485;49.194;12.104;2024-03-23T09:41:06;6.25;;;3.28;;
83541;SDS011;73485;49.194;12.104;2024-03-23T09:43:32;5.80;;;3.95;;
83541;SDS011;73485;49.194;12.104;2024-03-23T09:45:59;6.15;;;3.45;;
83541;SDS011;73485;49.194;12.104;2024-03-23T09:48:27;5.18;;;3.55;;
83541;SDS011;73485;49.194;12.104;2024-03-23T09:50:54;4.63;;;2.95;;
83541;SDS011;73485;49.194;12.104;2024-03-23T09:53:20;3.95;;;2.80;;
83541;SDS011;73485;49.194;12.104;2024-03-23T09:55:47;4.32;;;2.92;;
83541;SDS011;73485;49.194;12.104;2024-03-23T09:58:14;4.55;;;2.67;;
83541;SDS011;73485;49.194;12.104;2024-03-23T10:00:41;3.08;;;2.45;;
83541;SDS011;73485;49.194;12.104;2024-03-23T10:03:07;3.85;;;2.35;;
83541;SDS011;73485;49.194;12.104;2024-03-23T10:05:37;3.28;;;1.85;;
83541;SDS011;73485;49.194;12.104;2024-03-23T10:08:16;3.63;;;2.63;;
83541;SDS011;73485;49.194;12.104;2024-03-23T10:10:44;5.05;;;2.47;;
83541;SDS011;73485;49.194;12.104;2024-03-23T10:13:10;3.67;;;2.22;;
83541;SDS011;73485;49.194;12.104;2024-03-23T10:15:38;2.53;;;1.85;;
83541;SDS011;73485;49.194;12.104;2024-03-23T10:18:04;2.72;;;2.08;;
83541;SDS011;73485;49.194;12.104;2024-03-23T10:20:47;1.90;;;1.70;;
83541;SDS011;73485;49.194;12.104;2024-03-23T10:23:16;2.10;;;1.70;;
83541;SDS011;73485;49.194;12.104;2024-03-23T10:25:44;2.38;;;1.65;;
83541;SDS011;73485;49.194;12.104;2024-03-23T10:28:11;2.88;;;1.30;;
83541;SDS011;73485;49.194;12.104;2024-03-23T10:30:38;1.92;;;1.50;;
83541;SDS011;73485;49.194;12.104;2024-03-23T10:33:07;1.73;;;1.63;;
83541;SDS011;73485;49.194;12.104;2024-03-23T10:35:34;1.95;;;1.63;;
83541;SDS011;73485;49.194;12.104;2024-03-23T10:38:02;1.58;;;1.48;;
83541;SDS011;73485;49.194;12.104;2024-03-23T10:40:31;1.33;;;1.23;;
83541;SDS011;73485;49.194;12.104;2024-03-23T10:42:57;1.63;;;1.52;;
83541;SDS011;73485;49.194;12.104;2024-03-23T10:45:25;1.70;;;1.60;;
83541;SDS011;73485;49.194;12.104;2024-03-23T10:47:50;1.63;;;1.35;;
83541;SDS011;73485;49.194;12.104;2024-03-23T10:50:18;1.95;;;1.60;;
83541;SDS011;73485;49.194;12.104;2024-03-23T10:52:45;1.90;;;1.52;;
83541;SDS011;73485;49.194;12.104;2024-03-23T10:55:15;1.70;;;1.58;;
83541;SDS011;73485;49.194;12.104;2024-03-23T10:57:43;1.77;;;1.58;;
83541;SDS011;73485;49.194;12.104;2024-03-23T11:00:12;1.30;;;0.75;;
83541;SDS011;73485;49.194;12.104;2024-03-23T11:02:38;1.75;;;1.52;;
83541;SDS011;73485;49.194;12.104;2024-03-23T11:07:54;1.35;;;1.25;;
83541;SDS011;73485;49.194;12.104;2024-03-23T11:10:26;1.67;;;1.58;;
83541;SDS011;73485;49.194;12.104;2024-03-23T11:12:54;2.78;;;1.50;;
83541;SDS011;73485;49.194;12.104;2024-03-23T11:15:21;1.83;;;1.48;;
83541;SDS011;73485;49.194;12.104;2024-03-23T11:18:02;1.15;;;1.05;;
83541;SDS011;73485;49.194;12.104;2024-03-23T11:20:33;1.50;;;1.40;;
83541;SDS011;73485;49.194;12.104;2024-03-23T11:22:59;2.22;;;1.65;;
83541;SDS011;73485;49.194;12.104;2024-03-23T11:25:28;1.10;;;0.93;;
83541;SDS011;73485;49.194;12.104;2024-03-23T11:27:54;2.40;;;1.30;;
83541;SDS011;73485;49.194;12.104;2024-03-23T11:30:23;1.63;;;1.38;;
83541;SDS011;73485;49.194;12.104;2024-03-23T11:32:49;2.00;;;1.50;;
83541;SDS011;73485;49.194;12.104;2024-03-23T11:35:24;1.30;;;1.15;;
83541;SDS011;73485;49.194;12.104;2024-03-23T11:38:01;1.55;;;1.02;;
83541;SDS011;73485;49.194;12.104;2024-03-23T11:40:30;1.42;;;1.10;;
83541;SDS011;73485;49.194;12.104;2024-03-23T11:42:57;2.47;;;1.30;;
83541;SDS011;73485;49.194;12.104;2024-03-23T11:45:24;1.95;;;1.58;;
83541;SDS011;73485;49.194;12.104;2024-03-23T11:48:01;1.67;;;1.58;;
83541;SDS011;73485;49.194;12.104;2024-03-23T11:50:28;3.30;;;1.35;;
83541;SDS011;73485;49.194;12.104;2024-03-23T11:53:05;1.58;;;1.25;;
83541;SDS011;73485;49.194;12.104;2024-03-23T11:55:41;1.98;;;1.40;;
83541;SDS011;73485;49.194;12.104;2024-03-23T11:58:07;1.55;;;1.23;;
83541;SDS011;73485;49.194;12.104;2024-03-23T12:00:34;1.33;;;1.02;;
83541;SDS011;73485;49.194;12.104;2024-03-23T12:03:00;2.58;;;1.02;;
83541;SDS011;73485;49.194;12.104;2024-03-23T12:05:27;5.35;;;2.30;;
83541;SDS011;73485;49.194;12.104;2024-03-23T12:07:53;2.05;;;1.55;;
83541;SDS011;73485;49.194;12.104;2024-03-23T12:10:19;2.42;;;1.92;;
83541;SDS011;73485;49.194;12.104;2024-03-23T12:12:51;1.75;;;1.38;;
83541;SDS011;73485;49.194;12.104;2024-03-23T12:15:27;2.25;;;1.30;;
83541;SDS011;73485;49.194;12.104;2024-03-23T12:18:04;1.92;;;1.55;;
83541;SDS011;73485;49.194;12.104;2024-03-23T12:20:32;5.43;;;2.15;;
83541;SDS011;73485;49.194;12.104;2024-03-23T12:23:04;2.55;;;1.45;;
83541;SDS011;73485;49.194;12.104;2024-03-23T12:25:32;1.60;;;1.38;;
83541;SDS011;73485;49.194;12.104;2024-03-23T12:27:59;1.70;;;1.35;;
83541;SDS011;73485;49.194;12.104;2024-03-23T12:30:26;1.98;;;1.55;;
83541;SDS011;73485;49.194;12.104;2024-03-23T12:32:52;2.25;;;1.65;;
83541;SDS011;73485;49.194;12.104;2024-03-23T12:35:19;3.88;;;1.90;;
83541;SDS011;73485;49.194;12.104;2024-03-23T12:37:44;3.60;;;1.95;;
83541;SDS011;73485;49.194;12.104;2024-03-23T12:40:11;4.32;;;2.13;;
83541;SDS011;73485;49.194;12.104;2024-03-23T12:42:37;4.22;;;1.98;;
83541;SDS011;73485;49.194;12.104;2024-03-23T12:45:06;5.88;;;2.15;;
83541;SDS011;73485;49.194;12.104;2024-03-23T12:47:32;2.17;;;1.70;;
83541;SDS011;73485;49.194;12.104;2024-03-23T12:49:59;2.05;;;1.75;;
83541;SDS011;73485;49.194;12.104;2024-03-23T12:52:24;4.40;;;2.03;;
83541;SDS011;73485;49.194;12.104;2024-03-23T12:54:54;3.38;;;1.85;;
83541;SDS011;73485;49.194;12.104;2024-03-23T12:57:21;4.43;;;1.98;;
83541;SDS011;73485;49.194;12.104;2024-03-23T12:59:49;3.55;;;2.00;;
83541;SDS011;73485;49.194;12.104;2024-03-23T13:02:18;5.55;;;2.00;;
83541;SDS011;73485;49.194;12.104;2024-03-23T13:04:46;5.30;;;2.28;;
83541;SDS011;73485;49.194;12.104;2024-03-23T13:07:12;5.45;;;1.88;;
83541;SDS011;73485;49.194;12.104;2024-03-23T13:09:39;2.85;;;1.80;;
83541;SDS011;73485;49.194;12.104;2024-03-23T13:12:05;4.30;;;1.80;;
83541;SDS011;73485;49.194;12.104;2024-03-23T13:14:33;2.67;;;1.77;;
83541;SDS011;73485;49.194;12.104;2024-03-23T13:16:58;2.58;;;1.30;;
83541;SDS011;73485;49.194;12.104;2024-03-23T13:19:26;6.22;;;2.22;;
83541;SDS011;73485;49.194;12.104;2024-03-23T13:21:53;3.83;;;2.28;;
83541;SDS011;73485;49.194;12.104;2024-03-23T13:24:21;4.38;;;1.92;;
83541;SDS011;73485;49.194;12.104;2024-03-23T13:26:47;2.05;;;1.70;;
83541;SDS011;73485;49.194;12.104;2024-03-23T13:29:14;3.08;;;1.77;;
83541;SDS011;73485;49.194;12.104;2024-03-23T13:31:40;3.55;;;2.33;;
83541;SDS011;73485;49.194;12.104;2024-03-23T13:34:07;4.22;;;1.90;;
83541;SDS011;73485;49.194;12.104;2024-03-23T13:36:34;3.45;;;1.80;;
83541;SDS011;73485;49.194;12.104;2024-03-23T13:39:01;5.00;;;2.13;;
83541;SDS011;73485;49.194;12.104;2024-03-23T13:41:28;3.80;;;1.80;;
83541;SDS011;73485;49.194;12.104;2024-03-23T13:43:54;3.83;;;1.75;;
83541;SDS011;73485;49.194;12.104;2024-03-23T13:46:20;3.17;;;2.38;;
83541;SDS011;73485;49.194;12.104;2024-03-23T13:48:47;5.15;;;2.20;;
83541;SDS011;73485;49.194;12.104;2024-03-23T13:51:12;5.93;;;2.15;;
83541;SDS011;73485;49.194;12.104;2024-03-23T13:53:41;4.68;;;2.20;;
83541;SDS011;73485;49.194;12.104;2024-03-23T13:56:06;4.75;;;1.80;;
83541;SDS011;73485;49.194;12.104;2024-03-23T13:58:33;5.80;;;1.98;;
83541;SDS011;73485;49.194;12.104;2024-03-23T14:00:59;3.88;;;1.80;;
83541;SDS011;73485;49.194;12.104;2024-03-23T14:03:25;2.80;;;1.80;;
83541;SDS011;73485;49.194;12.104;2024-03-23T14:05:52;2.47;;;1.60;;
83541;SDS011;73485;49.194;12.104;2024-03-23T14:08:21;4.25;;;1.95;;
83541;SDS011;73485;49.194;12.104;2024-03-23T14:10:48;4.07;;;2.72;;
83541;SDS011;73485;49.194;12.104;2024-03-23T14:13:15;5.70;;;2.42;;
83541;SDS011;73485;49.194;12.104;2024-03-23T14:15:41;3.55;;;2.22;;
83541;SDS011;73485;49.194;12.104;2024-03-23T14:18:07;4.28;;;2.25;;
83541;SDS011;73485;49.194;12.104;2024-03-23T14:20:33;3.88;;;2.42;;
83541;SDS011;73485;49.194;12.104;2024-03-23T14:23:00;3.83;;;2.00;;
83541;SDS011;73485;49.194;12.104;2024-03-23T14:25:26;7.72;;;2.25;;
83541;SDS011;73485;49.194;12.104;2024-03-23T14:27:56;4.80;;;2.40;;
83541;SDS011;73485;49.194;12.104;2024-03-23T14:30:21;3.20;;;1.88;;
83541;SDS011;73485;49.194;12.104;2024-03-23T14:32:48;7.13;;;2.28;;
83541;SDS011;73485;49.194;12.104;2024-03-23T14:35:14;7.80;;;2.03;;
83541;SDS011;73485;49.194;12.104;2024-03-23T14:37:40;5.07;;;2.10;;
83541;SDS011;73485;49.194;12.104;2024-03-23T14:40:07;3.97;;;2.20;;
83541;SDS011;73485;49.194;12.104;2024-03-23T14:42:38;4.47;;;2.28;;
83541;SDS011;73485;49.194;12.104;2024-03-23T14:45:05;2.20;;;1.77;;
83541;SDS011;73485;49.194;12.104;2024-03-23T14:47:32;4.80;;;2.53;;
83541;SDS011;73485;49.194;12.104;2024-03-23T14:49:58;5.57;;;2.00;;
83541;SDS011;73485;49.194;12.104;2024-03-23T14:52:26;7.63;;;2.83;;
83541;SDS011;73485;49.194;12.104;2024-03-23T14:54:52;4.53;;;2.40;;
83541;SDS011;73485;49.194;12.104;2024-03-23T14:57:19;4.70;;;2.22;;
83541;SDS011;73485;49.194;12.104;2024-03-23T14:59:45;5.28;;;2.10;;
83541;SDS011;73485;49.194;12.104;2024-03-23T15:02:13;3.03;;;1.98;;
83541;SDS011;73485;49.194;12.104;2024-03-23T15:04:39;7.90;;;2.58;;
83541;SDS011;73485;49.194;12.104;2024-03-23T15:07:07;7.30;;;2.15;;
83541;SDS011;73485;49.194;12.104;2024-03-23T15:09:32;6.47;;;2.80;;
83541;SDS011;73485;49.194;12.104;2024-03-23T15:11:59;4.32;;;2.33;;
83541;SDS011;73485;49.194;12.104;2024-03-23T15:14:25;7.75;;;2.15;;
83541;SDS011;73485;49.194;12.104;2024-03-23T15:16:51;3.05;;;1.90;;
83541;SDS011;73485;49.194;12.104;2024-03-23T15:19:19;4.03;;;2.40;;